San Patricio, Texas
Current Conditions -  °F | °C
As of 11:55 AM on Monday 24 Nov 2014 (Local Time) from KRBO Reporting Station
Scattered Clouds Scattered Clouds  
Wind Chill: 64°   Ceiling: Unl
Heat Index: 64°   Visibility: 10mi
Dew Point: 38°   Wind: 12mph
Humidity: 38%   Direction: 360°N
Pressure: 30.09"   Gusts: 21mph
Location:  28.0654°N, 97.7489°W
Report Text: KRBO 241755Z AUTO 36010G18KT 10SM SCT100 18/03 A3009 RMK AO2 T01800034 10180 20115
Loading
Personal Weather Stations






























Interactive Weather Map New forecast layout! Learn more

10-Day Weather Forecast

Advertisements
Track Severe Weather on mobile